createdAt,value
2018-03-26T00:01:13.145Z,7.00
2018-03-26T00:03:41.525Z,7.00
2018-03-26T00:06:09.779Z,7.00
2018-03-26T00:08:38.059Z,7.00
2018-03-26T00:11:06.335Z,7.00
2018-03-26T00:13:35.787Z,6.80
2018-03-26T00:16:04.146Z,6.80
2018-03-26T00:18:32.426Z,6.90
2018-03-26T00:21:00.828Z,6.80
2018-03-26T00:23:29.093Z,6.90
2018-03-26T00:25:59.230Z,6.80
2018-03-26T00:28:28.448Z,6.80
2018-03-26T00:30:58.083Z,6.80
2018-03-26T00:33:26.358Z,6.80
2018-03-26T00:35:55.525Z,6.70
2018-03-26T00:38:23.863Z,6.60
2018-03-26T00:40:52.958Z,6.60
2018-03-26T00:43:21.194Z,6.40
2018-03-26T00:45:49.520Z,6.30
2018-03-26T00:48:18.466Z,6.20
2018-03-26T00:50:46.754Z,6.10
2018-03-26T01:07:04.196Z,6.30
2018-03-26T01:09:32.474Z,6.20
2018-03-26T01:12:01.728Z,6.30
2018-03-26T01:14:29.958Z,6.20
2018-03-26T01:16:59.026Z,6.30
2018-03-26T01:19:27.305Z,6.30
2018-03-26T01:21:56.752Z,6.10
2018-03-26T01:24:26.647Z,6.20
2018-03-26T01:26:54.871Z,6.20
2018-03-26T01:29:23.960Z,6.20
2018-03-26T01:31:52.306Z,6.20
2018-03-26T01:34:22.250Z,6.10
2018-03-26T01:36:51.320Z,6.20
2018-03-26T01:39:20.352Z,6.10
2018-03-26T01:41:48.680Z,6.10
2018-03-26T01:44:17.759Z,6.00
2018-03-26T01:46:45.999Z,6.00
2018-03-26T01:49:14.280Z,6.00
2018-03-26T01:51:42.576Z,6.00
2018-03-26T01:54:11.675Z,5.90
2018-03-26T01:56:39.942Z,5.50
2018-03-26T01:59:08.327Z,5.50
2018-03-26T02:01:36.636Z,5.40
2018-03-26T02:04:06.864Z,5.10
2018-03-26T02:06:35.113Z,5.10
2018-03-26T02:09:03.421Z,5.10
2018-03-26T02:11:32.451Z,4.90
2018-03-26T02:14:00.913Z,4.90
2018-03-26T02:16:29.180Z,4.90
2018-03-26T02:18:57.452Z,4.90
2018-03-26T02:21:27.342Z,4.80
2018-03-26T02:23:55.587Z,4.70
2018-03-26T02:26:23.882Z,4.90
2018-03-26T02:28:52.162Z,4.90
2018-03-26T02:31:20.401Z,4.70
2018-03-26T02:33:49.991Z,4.60
2018-03-26T02:36:20.276Z,4.40
2018-03-26T02:38:48.539Z,4.40
2018-03-26T02:41:16.847Z,4.20
2018-03-26T02:43:45.179Z,4.20
2018-03-26T02:46:13.505Z,4.20
2018-03-26T02:48:41.753Z,4.30
2018-03-26T02:51:11.751Z,4.30
2018-03-26T02:53:40.011Z,4.20
2018-03-26T02:56:08.287Z,4.20
2018-03-26T02:58:36.573Z,4.10
2018-03-26T03:01:04.853Z,4.10
2018-03-26T03:03:33.127Z,4.00
2018-03-26T03:06:02.546Z,4.00
2018-03-26T03:08:30.791Z,4.00
2018-03-26T03:10:59.061Z,3.80
2018-03-26T03:13:27.424Z,3.70
2018-03-26T03:15:55.754Z,3.70
2018-03-26T03:18:24.032Z,3.50
2018-03-26T03:20:52.275Z,3.50
2018-03-26T03:23:20.580Z,3.40
2018-03-26T03:25:48.960Z,3.40
2018-03-26T03:28:17.188Z,3.40
2018-03-26T03:30:46.246Z,3.30
2018-03-26T03:33:15.271Z,3.30
2018-03-26T03:35:43.504Z,3.30
2018-03-26T03:38:11.766Z,3.40
2018-03-26T03:40:40.023Z,3.40
2018-03-26T03:43:08.670Z,3.40
2018-03-26T03:45:37.682Z,3.40
2018-03-26T03:48:06.038Z,3.40
2018-03-26T03:50:36.015Z,3.30
2018-03-26T03:53:04.286Z,3.30
2018-03-26T03:55:32.716Z,3.20
2018-03-26T03:58:01.759Z,3.30
2018-03-26T04:00:30.029Z,3.30
2018-03-26T04:02:58.764Z,3.30
2018-03-26T04:05:27.043Z,3.40
2018-03-26T04:07:56.126Z,3.40
2018-03-26T04:10:25.159Z,3.40
2018-03-26T04:12:53.435Z,3.40
2018-03-26T04:15:21.775Z,3.20
2018-03-26T04:17:50.134Z,3.30
2018-03-26T04:20:18.385Z,3.30
2018-03-26T04:22:46.644Z,3.30
2018-03-26T04:25:16.163Z,3.30
2018-03-26T04:27:44.446Z,3.20
2018-03-26T04:30:12.705Z,3.10
2018-03-26T04:32:40.971Z,3.20
2018-03-26T04:35:09.398Z,3.10
2018-03-26T04:37:38.767Z,3.10
2018-03-26T04:40:07.016Z,3.10
2018-03-26T04:42:35.294Z,3.20
2018-03-26T04:45:03.594Z,3.20
2018-03-26T04:47:31.861Z,3.30
2018-03-26T04:50:00.228Z,3.40
2018-03-26T04:52:28.645Z,3.40
2018-03-26T04:54:56.927Z,3.50
2018-03-26T04:57:25.170Z,3.30
2018-03-26T04:59:53.474Z,3.20
2018-03-26T05:02:23.239Z,3.10
2018-03-26T05:04:52.440Z,3.10
2018-03-26T05:07:20.727Z,3.10
2018-03-26T05:09:49.002Z,3.20
2018-03-26T05:12:17.279Z,3.10
2018-03-26T05:14:45.522Z,3.10
2018-03-26T05:17:14.587Z,2.90
2018-03-26T05:19:44.026Z,2.90
2018-03-26T05:22:12.229Z,2.80
2018-03-26T05:24:40.556Z,2.90
2018-03-26T05:27:08.816Z,2.80
2018-03-26T05:29:37.086Z,2.80
2018-03-26T05:32:06.381Z,2.70
2018-03-26T05:34:34.636Z,2.80
2018-03-26T05:37:02.906Z,2.90
2018-03-26T05:39:31.166Z,2.90
2018-03-26T05:42:00.409Z,2.90
2018-03-26T05:44:29.903Z,2.80
2018-03-26T05:46:58.180Z,2.80
2018-03-26T05:49:26.425Z,2.90
2018-03-26T05:51:54.754Z,3.00
2018-03-26T05:54:23.006Z,3.00
2018-03-26T05:56:51.309Z,3.00
2018-03-26T05:59:19.674Z,2.90
2018-03-26T06:01:47.917Z,3.00
2018-03-26T06:04:16.223Z,3.00
2018-03-26T06:06:44.500Z,3.00
2018-03-26T06:09:13.518Z,3.00
2018-03-26T06:11:41.773Z,3.10
2018-03-26T06:14:10.022Z,3.10
2018-03-26T06:16:50.290Z,3.10
2018-03-26T06:19:18.529Z,3.10
2018-03-26T06:21:46.793Z,3.10
2018-03-26T06:24:15.853Z,3.10
2018-03-26T06:26:44.123Z,3.10
2018-03-26T06:29:12.397Z,3.20
2018-03-26T06:31:40.646Z,3.30
2018-03-26T06:34:08.893Z,3.30
2018-03-26T07:01:10.858Z,3.60
2018-03-26T07:03:39.894Z,3.60
2018-03-26T07:06:08.147Z,3.70
2018-03-26T07:08:36.390Z,3.70
2018-03-26T07:11:06.514Z,3.70
2018-03-26T07:13:34.923Z,3.70
2018-03-26T07:16:03.690Z,3.80
2018-03-26T07:18:31.984Z,4.00
2018-03-26T07:21:00.289Z,4.10
2018-03-26T07:23:30.181Z,4.20
2018-03-26T07:26:01.399Z,4.20
2018-03-26T07:28:30.573Z,4.20
2018-03-26T07:30:58.970Z,4.10
2018-03-26T07:33:27.223Z,4.10
2018-03-26T07:35:55.625Z,4.20
2018-03-26T07:38:23.923Z,4.30
2018-03-26T07:40:53.458Z,4.40
2018-03-26T07:43:22.596Z,4.30
2018-03-26T07:45:52.028Z,4.30
2018-03-26T07:48:21.238Z,4.20
2018-03-26T07:50:50.410Z,4.40
2018-03-26T07:53:18.783Z,4.20
2018-03-26T07:55:48.244Z,4.10
2018-03-26T07:58:16.499Z,4.30
2018-03-26T08:00:44.901Z,4.50
2018-03-26T08:03:13.227Z,4.40
2018-03-26T08:05:42.245Z,4.30
2018-03-26T08:08:10.519Z,4.50
2018-03-26T08:10:39.632Z,4.60
2018-03-26T08:13:07.880Z,4.70
2018-03-26T08:15:37.061Z,4.60
2018-03-26T08:18:05.439Z,4.60
2018-03-26T08:20:33.731Z,4.80
2018-03-26T08:23:01.987Z,4.90
2018-03-26T08:25:30.249Z,5.00
2018-03-26T08:27:58.581Z,5.00
2018-03-26T08:30:27.655Z,5.00
2018-03-26T08:32:56.794Z,5.00
2018-03-26T08:35:25.010Z,4.90
2018-03-26T08:37:53.325Z,5.00
2018-03-26T08:40:25.190Z,5.00
2018-03-26T08:42:53.473Z,5.00
2018-03-26T08:45:22.649Z,5.10
2018-03-26T08:47:50.922Z,5.10
2018-03-26T08:50:19.232Z,5.30
2018-03-26T08:52:47.511Z,5.30
2018-03-26T08:55:16.565Z,5.40
2018-03-26T08:57:45.584Z,5.40
2018-03-26T09:00:13.834Z,5.30
2018-03-26T09:02:45.814Z,5.30
2018-03-26T09:05:14.157Z,5.20
2018-03-26T09:07:42.448Z,5.20
2018-03-26T09:10:10.865Z,5.30
2018-03-26T09:12:39.921Z,5.40
2018-03-26T09:15:09.027Z,5.40
2018-03-26T09:17:37.364Z,5.40
2018-03-26T09:20:05.707Z,5.40
2018-03-26T09:22:34.778Z,5.40
2018-03-26T09:25:03.131Z,5.40
2018-03-26T09:27:31.432Z,5.40
2018-03-26T09:29:59.763Z,5.60
2018-03-26T09:32:28.096Z,5.60
2018-03-26T09:34:56.354Z,5.50
2018-03-26T09:37:24.604Z,5.30
2018-03-26T09:39:52.868Z,5.20
2018-03-26T09:42:21.904Z,5.50
2018-03-26T09:44:50.189Z,5.60
2018-03-26T09:47:18.467Z,5.60
2018-03-26T09:49:46.766Z,5.70
2018-03-26T09:52:15.800Z,5.40
2018-03-26T09:54:44.082Z,5.40
2018-03-26T09:57:12.402Z,5.30
2018-03-26T09:59:40.888Z,5.20
2018-03-26T10:02:09.974Z,5.30
2018-03-26T10:04:38.312Z,5.30
2018-03-26T10:07:06.672Z,5.30
2018-03-26T10:09:35.028Z,5.50
2018-03-26T10:12:03.638Z,5.70
2018-03-26T10:14:31.931Z,5.60
2018-03-26T10:17:01.750Z,5.70
2018-03-26T10:19:29.971Z,5.80
2018-03-26T10:21:59.135Z,5.90
2018-03-26T10:24:27.407Z,5.90
2018-03-26T10:26:57.134Z,6.30
2018-03-26T10:29:25.449Z,6.40
2018-03-26T10:31:55.018Z,6.80
2018-03-26T10:34:23.274Z,7.00
2018-03-26T10:36:52.510Z,7.20
2018-03-26T10:39:21.582Z,7.50
2018-03-26T10:41:49.862Z,7.50
2018-03-26T10:44:19.630Z,8.10
2018-03-26T10:46:47.941Z,8.10
2018-03-26T10:49:19.901Z,8.40
2018-03-26T10:51:48.142Z,8.60
2018-03-26T10:54:18.086Z,8.80
2018-03-26T10:56:46.576Z,8.70
2018-03-26T10:59:14.839Z,9.00
2018-03-26T11:01:43.124Z,9.20
2018-03-26T11:04:11.407Z,8.90
2018-03-26T11:06:39.735Z,8.80
2018-03-26T11:09:09.570Z,8.50
2018-03-26T11:11:37.817Z,8.60
2018-03-26T11:14:06.241Z,9.00
2018-03-26T11:16:35.775Z,8.70
2018-03-26T11:19:04.051Z,8.80
2018-03-26T11:21:32.298Z,9.00
2018-03-26T11:24:01.481Z,9.30
2018-03-26T11:26:29.747Z,9.40
2018-03-26T11:28:58.055Z,9.20
2018-03-26T11:31:27.165Z,9.20
2018-03-26T11:33:56.055Z,9.40
2018-03-26T11:36:24.403Z,9.40
2018-03-26T11:38:52.634Z,9.40
2018-03-26T11:41:21.643Z,8.90
2018-03-26T11:43:49.946Z,8.90
2018-03-26T11:46:18.179Z,8.90
2018-03-26T11:48:46.487Z,8.80
2018-03-26T11:51:14.898Z,8.50
2018-03-26T11:53:44.401Z,8.40
2018-03-26T11:56:12.647Z,8.50
2018-03-26T11:58:41.058Z,8.70
2018-03-26T12:01:09.346Z,8.80
2018-03-26T12:03:37.666Z,9.20
2018-03-26T12:06:06.065Z,9.60
2018-03-26T12:08:34.428Z,10.00
2018-03-26T12:11:02.715Z,10.30
2018-03-26T12:13:31.007Z,10.50
2018-03-26T12:15:59.299Z,10.50
2018-03-26T12:18:27.549Z,10.30
2018-03-26T12:21:00.377Z,10.30
2018-03-26T12:23:41.275Z,10.20
2018-03-26T12:26:09.539Z,10.10
2018-03-26T12:28:50.464Z,10.10
2018-03-26T12:31:18.765Z,10.10
2018-03-26T12:33:59.662Z,9.80
2018-03-26T12:36:28.746Z,9.90
2018-03-26T12:38:57.016Z,9.90
2018-03-26T12:41:26.080Z,9.70
2018-03-26T12:43:54.359Z,9.60
2018-03-26T12:46:34.590Z,9.60
2018-03-26T12:49:02.905Z,9.60
2018-03-26T12:51:44.542Z,9.50
2018-03-26T12:54:13.738Z,9.40
2018-03-26T12:56:42.027Z,9.40
2018-03-26T12:59:10.358Z,9.50
2018-03-26T13:01:51.803Z,9.30
2018-03-26T13:04:20.030Z,9.20
2018-03-26T13:06:49.155Z,9.30
2018-03-26T13:09:17.476Z,9.30
2018-03-26T13:11:45.706Z,9.50
2018-03-26T13:14:13.960Z,9.70
2018-03-26T13:16:43.068Z,9.70
2018-03-26T13:19:11.399Z,9.70
2018-03-26T13:21:39.735Z,9.50
2018-03-26T13:24:08.016Z,9.70
2018-03-26T13:26:36.314Z,9.80
2018-03-26T13:29:05.871Z,9.70
2018-03-26T13:31:34.891Z,9.90
2018-03-26T13:34:03.175Z,9.90
2018-03-26T13:36:31.449Z,10.00
2018-03-26T13:38:59.756Z,9.90
2018-03-26T13:41:29.166Z,9.80
2018-03-26T13:43:59.163Z,9.80
2018-03-26T13:46:27.424Z,9.70
2018-03-26T13:48:55.675Z,9.80
2018-03-26T13:51:24.888Z,9.70
2018-03-26T13:53:56.859Z,9.90
2018-03-26T13:56:25.120Z,10.00
2018-03-26T13:58:53.510Z,10.10
2018-03-26T14:01:22.573Z,10.20
2018-03-26T14:03:50.914Z,9.90
2018-03-26T14:06:19.210Z,9.80
2018-03-26T14:08:59.330Z,9.60
2018-03-26T14:11:39.532Z,9.40
2018-03-26T14:14:20.505Z,9.30
2018-03-26T14:17:01.332Z,9.30
2018-03-26T14:19:30.790Z,9.20
2018-03-26T14:21:59.826Z,9.40
2018-03-26T14:24:28.109Z,9.40
2018-03-26T14:26:56.355Z,9.40
2018-03-26T14:29:25.534Z,9.40
2018-03-26T14:31:54.702Z,9.50
2018-03-26T14:34:22.958Z,9.40
2018-03-26T14:36:52.490Z,9.50
2018-03-26T14:39:20.740Z,9.50
2018-03-26T14:41:49.015Z,9.30
2018-03-26T14:44:17.414Z,9.40
2018-03-26T14:46:45.717Z,9.30
2018-03-26T14:49:14.745Z,9.00
2018-03-26T14:51:43.022Z,9.00
2018-03-26T14:54:11.281Z,8.90
2018-03-26T14:56:39.530Z,8.90
2018-03-26T14:59:08.563Z,8.50
2018-03-26T15:01:36.876Z,8.50
2018-03-26T15:04:05.118Z,8.40
2018-03-26T15:06:33.418Z,8.30
2018-03-26T15:09:01.658Z,8.30
2018-03-26T15:11:29.940Z,8.30
2018-03-26T15:13:58.276Z,8.20
2018-03-26T15:16:26.580Z,8.10
2018-03-26T15:18:54.887Z,8.10
2018-03-26T15:21:23.139Z,8.20
2018-03-26T15:23:51.413Z,8.30
2018-03-26T15:26:19.682Z,8.40
2018-03-26T15:28:47.935Z,8.40
2018-03-26T15:31:16.946Z,8.60
2018-03-26T15:33:45.234Z,8.60
2018-03-26T15:36:15.209Z,8.50
2018-03-26T15:38:43.619Z,8.50
2018-03-26T15:41:11.894Z,8.70
2018-03-26T15:43:40.158Z,8.80
2018-03-26T15:46:08.449Z,8.90
2018-03-26T15:48:36.709Z,8.80
2018-03-26T15:51:04.989Z,8.80
2018-03-26T15:53:34.013Z,8.80
2018-03-26T15:56:02.352Z,8.80
2018-03-26T15:58:30.608Z,8.80
2018-03-26T16:00:58.857Z,8.80
2018-03-26T16:03:33.616Z,8.80
2018-03-26T16:06:01.994Z,8.60
2018-03-26T16:08:30.225Z,8.50
2018-03-26T16:10:59.148Z,8.50
2018-03-26T16:13:27.357Z,8.50
2018-03-26T16:15:56.370Z,8.20
2018-03-26T16:18:24.691Z,8.20
2018-03-26T16:20:53.099Z,8.20
2018-03-26T16:23:21.366Z,8.10
2018-03-26T16:25:50.506Z,8.20
2018-03-26T16:28:18.760Z,8.20
2018-03-26T16:30:47.101Z,8.00
2018-03-26T16:33:15.361Z,7.80
2018-03-26T16:35:43.610Z,7.70
2018-03-26T16:38:12.721Z,7.80
2018-03-26T16:40:41.730Z,8.00
2018-03-26T16:43:10.008Z,8.00
2018-03-26T16:45:38.299Z,8.10
2018-03-26T16:48:06.636Z,8.10
2018-03-26T16:50:35.009Z,8.00
2018-03-26T16:53:03.257Z,7.90
2018-03-26T16:55:32.341Z,7.70
2018-03-26T16:58:00.702Z,7.70
2018-03-26T17:00:29.064Z,7.60
2018-03-26T17:02:57.332Z,7.50
2018-03-26T17:05:25.856Z,7.40
2018-03-26T17:07:54.191Z,7.20
2018-03-26T17:10:22.448Z,7.10
2018-03-26T17:12:50.737Z,6.90
2018-03-26T17:15:19.047Z,6.80
2018-03-26T17:17:47.340Z,6.60
2018-03-26T17:20:15.679Z,6.50
2018-03-26T17:22:43.951Z,6.30
2018-03-26T17:25:12.988Z,6.20
2018-03-26T17:27:42.041Z,5.90
2018-03-26T17:30:10.313Z,5.90
2018-03-26T17:32:38.619Z,5.80
2018-03-26T17:35:07.500Z,5.70
2018-03-26T17:37:35.763Z,5.60
2018-03-26T17:40:04.118Z,5.40
2018-03-26T17:42:32.443Z,5.40
2018-03-26T17:45:00.754Z,5.30
2018-03-26T17:47:29.034Z,5.20
2018-03-26T17:49:57.342Z,5.10
2018-03-26T17:52:25.610Z,5.00
2018-03-26T17:54:53.871Z,4.90
2018-03-26T17:57:22.158Z,4.90
2018-03-26T17:59:50.460Z,4.80
2018-03-26T18:02:18.733Z,4.70
2018-03-26T18:04:47.059Z,4.60
2018-03-26T18:07:16.102Z,4.40
2018-03-26T18:09:44.393Z,4.40
2018-03-26T18:12:14.326Z,4.40
2018-03-26T18:14:43.384Z,4.40
2018-03-26T18:17:11.696Z,4.30
2018-03-26T18:19:40.749Z,4.40
2018-03-26T18:22:09.568Z,4.30
2018-03-26T18:24:37.868Z,4.40
2018-03-26T18:27:06.937Z,4.40
2018-03-26T18:29:35.226Z,4.40
2018-03-26T18:32:04.280Z,4.40
2018-03-26T18:34:32.663Z,4.40
2018-03-26T18:37:00.986Z,4.30
2018-03-26T18:39:30.036Z,4.40
2018-03-26T18:41:58.461Z,4.40
2018-03-26T18:44:28.466Z,4.40
2018-03-26T18:46:56.781Z,4.40
2018-03-26T18:49:25.076Z,4.50
2018-03-26T18:51:53.344Z,4.60
2018-03-26T18:54:21.709Z,4.60
2018-03-26T18:56:51.065Z,4.80
2018-03-26T18:59:19.319Z,4.80
2018-03-26T19:01:47.630Z,4.80
2018-03-26T19:04:15.909Z,4.80
2018-03-26T19:06:45.040Z,4.90
2018-03-26T19:09:13.368Z,5.00
2018-03-26T19:11:41.746Z,5.10
2018-03-26T19:14:10.560Z,5.20
2018-03-26T19:19:13.309Z,5.30
2018-03-26T19:21:41.626Z,5.30
2018-03-26T19:24:10.688Z,5.30
2018-03-26T19:26:40.629Z,5.30
2018-03-26T19:29:09.840Z,5.30
2018-03-26T19:31:38.135Z,5.30
2018-03-26T19:34:08.065Z,5.30
2018-03-26T19:36:36.506Z,5.20
2018-03-26T19:39:06.839Z,5.20
2018-03-26T19:41:35.225Z,5.20
2018-03-26T19:44:03.712Z,5.20
2018-03-26T19:46:32.088Z,5.30
2018-03-26T19:49:00.568Z,5.40
2018-03-26T19:51:28.897Z,5.30
2018-03-26T19:53:58.184Z,5.30
2018-03-26T19:56:26.522Z,5.30
2018-03-26T19:58:54.899Z,5.30
2018-03-26T20:01:23.915Z,5.30
2018-03-26T20:03:52.255Z,5.30
2018-03-26T20:06:21.953Z,5.20
2018-03-26T20:08:51.077Z,5.20
2018-03-26T20:11:19.361Z,5.20
2018-03-26T20:13:47.732Z,4.90
2018-03-26T20:16:16.044Z,4.90
2018-03-26T20:18:44.316Z,4.90
2018-03-26T20:21:12.614Z,4.90
2018-03-26T20:23:40.911Z,5.00
2018-03-26T20:26:09.944Z,5.10
2018-03-26T20:28:38.285Z,5.10
2018-03-26T20:31:07.511Z,5.20
2018-03-26T20:33:35.838Z,5.30
2018-03-26T20:36:04.151Z,5.20
2018-03-26T20:38:32.433Z,5.20
2018-03-26T20:41:00.777Z,5.20
2018-03-26T20:43:29.288Z,5.10
2018-03-26T20:45:57.581Z,5.00
2018-03-26T20:48:25.883Z,5.00
2018-03-26T20:50:54.169Z,5.00
2018-03-26T20:53:22.506Z,5.10
2018-03-26T20:55:50.787Z,5.10
2018-03-26T20:58:20.304Z,5.10
2018-03-26T21:00:48.674Z,5.00
2018-03-26T21:03:18.965Z,5.00
2018-03-26T21:05:47.987Z,5.00
2018-03-26T21:08:17.529Z,5.00
2018-03-26T21:10:45.801Z,5.00
2018-03-26T21:13:14.094Z,5.10
2018-03-26T21:15:43.051Z,5.00
2018-03-26T21:18:11.318Z,5.00
2018-03-26T21:20:39.749Z,4.90
2018-03-26T21:23:08.999Z,4.90
2018-03-26T21:25:37.369Z,4.90
2018-03-26T21:28:05.868Z,4.90
2018-03-26T21:30:36.045Z,4.80
2018-03-26T21:33:05.221Z,4.80
2018-03-26T21:35:34.295Z,4.70
2018-03-26T21:38:02.664Z,4.70
2018-03-26T21:40:30.989Z,4.70
2018-03-26T21:43:00.020Z,4.70
2018-03-26T21:45:28.330Z,4.70
2018-03-26T21:47:56.707Z,4.80
2018-03-26T21:50:25.000Z,4.80
2018-03-26T21:52:54.069Z,4.90
2018-03-26T21:55:22.354Z,4.80
2018-03-26T21:57:50.644Z,4.90
2018-03-26T22:00:19.666Z,4.90
2018-03-26T22:02:48.681Z,5.00
2018-03-26T22:05:16.934Z,5.00
2018-03-26T22:07:45.208Z,5.00
2018-03-26T22:10:13.510Z,5.00
2018-03-26T22:12:41.796Z,5.00
2018-03-26T22:15:10.151Z,5.00
2018-03-26T22:17:38.412Z,5.10
2018-03-26T22:20:06.675Z,5.10
2018-03-26T22:22:35.703Z,5.00
2018-03-26T22:25:04.053Z,5.10
2018-03-26T22:27:32.454Z,5.10
2018-03-26T22:30:00.841Z,5.10
2018-03-26T22:32:29.158Z,5.10
2018-03-26T22:34:58.256Z,5.00
2018-03-26T22:37:26.595Z,5.00
2018-03-26T22:39:54.833Z,5.00
2018-03-26T22:42:23.891Z,5.00
2018-03-26T22:44:52.225Z,5.00
2018-03-26T22:47:20.492Z,5.10
2018-03-26T22:49:49.551Z,5.00
2018-03-26T22:52:17.827Z,5.00
2018-03-26T22:54:46.099Z,5.10
2018-03-26T22:57:14.502Z,5.10
2018-03-26T22:59:43.576Z,5.00
2018-03-26T23:02:11.926Z,5.00
2018-03-26T23:04:40.261Z,5.00
2018-03-26T23:07:08.642Z,4.90
2018-03-26T23:09:38.096Z,4.90
2018-03-26T23:12:07.542Z,4.90
2018-03-26T23:14:36.609Z,4.80
2018-03-26T23:17:04.862Z,4.70
2018-03-26T23:19:33.172Z,4.80
2018-03-26T23:22:02.196Z,4.80
2018-03-26T23:24:30.498Z,4.80
2018-03-26T23:26:58.776Z,4.90
2018-03-26T23:29:27.088Z,4.90
2018-03-26T23:31:55.465Z,4.90
2018-03-26T23:34:24.486Z,4.80
2018-03-26T23:36:52.760Z,4.80
2018-03-26T23:39:21.036Z,4.90
2018-03-26T23:41:52.971Z,4.90
2018-03-26T23:44:22.248Z,4.90
2018-03-26T23:46:50.559Z,4.80
2018-03-26T23:49:19.567Z,4.80
2018-03-26T23:51:47.849Z,4.80
2018-03-26T23:54:16.187Z,4.60
2018-03-26T23:56:46.014Z,4.60
2018-03-26T23:59:14.310Z,4.60
